sensor_id;sensor_type;location;lat;lon;timestamp;P1;durP1;ratioP1;P2;durP2;ratioP2
3447;SDS011;1738;49.500;17.736;2023-03-13T00:00:45;5.10;;;3.80;;
3447;SDS011;1738;49.500;17.736;2023-03-13T00:03:11;6.10;;;3.60;;
3447;SDS011;1738;49.500;17.736;2023-03-13T00:05:37;7.40;;;4.35;;
3447;SDS011;1738;49.500;17.736;2023-03-13T00:08:03;6.80;;;4.43;;
3447;SDS011;1738;49.500;17.736;2023-03-13T00:10:29;5.63;;;4.17;;
3447;SDS011;1738;49.500;17.736;2023-03-13T00:12:55;5.53;;;4.15;;
3447;SDS011;1738;49.500;17.736;2023-03-13T00:15:20;5.93;;;3.80;;
3447;SDS011;1738;49.500;17.736;2023-03-13T00:17:46;8.70;;;4.03;;
3447;SDS011;1738;49.500;17.736;2023-03-13T00:20:12;9.73;;;6.13;;
3447;SDS011;1738;49.500;17.736;2023-03-13T00:22:38;8.43;;;4.70;;
3447;SDS011;1738;49.500;17.736;2023-03-13T00:25:04;6.53;;;4.57;;
3447;SDS011;1738;49.500;17.736;2023-03-13T00:27:32;6.93;;;4.50;;
3447;SDS011;1738;49.500;17.736;2023-03-13T00:29:57;7.60;;;5.20;;
3447;SDS011;1738;49.500;17.736;2023-03-13T00:32:23;6.70;;;4.80;;
3447;SDS011;1738;49.500;17.736;2023-03-13T00:34:48;5.33;;;3.53;;
3447;SDS011;1738;49.500;17.736;2023-03-13T00:37:14;5.77;;;4.30;;
3447;SDS011;1738;49.500;17.736;2023-03-13T00:39:40;8.70;;;4.53;;
3447;SDS011;1738;49.500;17.736;2023-03-13T00:42:06;7.77;;;4.60;;
3447;SDS011;1738;49.500;17.736;2023-03-13T00:44:32;6.40;;;4.57;;
3447;SDS011;1738;49.500;17.736;2023-03-13T00:46:58;8.70;;;6.70;;
3447;SDS011;1738;49.500;17.736;2023-03-13T00:49:24;9.83;;;5.20;;
3447;SDS011;1738;49.500;17.736;2023-03-13T00:51:50;7.63;;;4.70;;
3447;SDS011;1738;49.500;17.736;2023-03-13T00:54:15;6.13;;;4.53;;
3447;SDS011;1738;49.500;17.736;2023-03-13T00:56:41;6.23;;;4.20;;
3447;SDS011;1738;49.500;17.736;2023-03-13T00:59:07;12.10;;;4.93;;
3447;SDS011;1738;49.500;17.736;2023-03-13T01:01:34;6.83;;;4.03;;
3447;SDS011;1738;49.500;17.736;2023-03-13T01:04:01;9.13;;;4.30;;
3447;SDS011;1738;49.500;17.736;2023-03-13T01:06:26;7.87;;;4.73;;
3447;SDS011;1738;49.500;17.736;2023-03-13T01:08:51;6.10;;;4.40;;
3447;SDS011;1738;49.500;17.736;2023-03-13T01:11:18;6.53;;;4.43;;
3447;SDS011;1738;49.500;17.736;2023-03-13T01:13:43;5.40;;;4.20;;
3447;SDS011;1738;49.500;17.736;2023-03-13T01:16:10;6.67;;;5.10;;
3447;SDS011;1738;49.500;17.736;2023-03-13T01:18:35;6.00;;;4.67;;
3447;SDS011;1738;49.500;17.736;2023-03-13T01:21:01;6.45;;;4.80;;
3447;SDS011;1738;49.500;17.736;2023-03-13T01:23:26;8.00;;;5.00;;
3447;SDS011;1738;49.500;17.736;2023-03-13T01:25:53;11.03;;;5.10;;
3447;SDS011;1738;49.500;17.736;2023-03-13T01:28:19;6.87;;;4.57;;
3447;SDS011;1738;49.500;17.736;2023-03-13T01:30:44;6.33;;;4.07;;
3447;SDS011;1738;49.500;17.736;2023-03-13T01:33:10;7.25;;;4.72;;
3447;SDS011;1738;49.500;17.736;2023-03-13T01:35:36;6.13;;;4.30;;
3447;SDS011;1738;49.500;17.736;2023-03-13T01:38:02;7.63;;;5.30;;
3447;SDS011;1738;49.500;17.736;2023-03-13T01:40:28;6.65;;;4.20;;
3447;SDS011;1738;49.500;17.736;2023-03-13T01:42:55;8.17;;;5.27;;
3447;SDS011;1738;49.500;17.736;2023-03-13T01:47:51;7.30;;;5.10;;
3447;SDS011;1738;49.500;17.736;2023-03-13T01:50:17;6.10;;;4.10;;
3447;SDS011;1738;49.500;17.736;2023-03-13T01:52:43;5.77;;;4.77;;
3447;SDS011;1738;49.500;17.736;2023-03-13T01:55:10;7.07;;;4.70;;
3447;SDS011;1738;49.500;17.736;2023-03-13T01:57:39;9.90;;;4.40;;
3447;SDS011;1738;49.500;17.736;2023-03-13T02:00:05;7.30;;;4.53;;
3447;SDS011;1738;49.500;17.736;2023-03-13T02:02:30;6.23;;;4.13;;
3447;SDS011;1738;49.500;17.736;2023-03-13T02:04:57;8.33;;;4.47;;
3447;SDS011;1738;49.500;17.736;2023-03-13T02:07:23;7.80;;;4.20;;
3447;SDS011;1738;49.500;17.736;2023-03-13T02:09:49;6.70;;;4.70;;
3447;SDS011;1738;49.500;17.736;2023-03-13T02:12:14;8.47;;;5.13;;
3447;SDS011;1738;49.500;17.736;2023-03-13T02:14:40;12.90;;;4.60;;
3447;SDS011;1738;49.500;17.736;2023-03-13T02:17:05;8.17;;;5.57;;
3447;SDS011;1738;49.500;17.736;2023-03-13T02:22:07;6.23;;;3.87;;
3447;SDS011;1738;49.500;17.736;2023-03-13T02:24:36;6.97;;;4.75;;
3447;SDS011;1738;49.500;17.736;2023-03-13T02:27:00;5.70;;;4.10;;
3447;SDS011;1738;49.500;17.736;2023-03-13T02:29:26;6.78;;;4.60;;
3447;SDS011;1738;49.500;17.736;2023-03-13T02:31:52;10.00;;;4.67;;
3447;SDS011;1738;49.500;17.736;2023-03-13T02:34:19;7.10;;;5.23;;
3447;SDS011;1738;49.500;17.736;2023-03-13T02:36:43;8.83;;;4.60;;
3447;SDS011;1738;49.500;17.736;2023-03-13T02:39:09;6.83;;;4.10;;
3447;SDS011;1738;49.500;17.736;2023-03-13T02:41:35;5.65;;;4.35;;
3447;SDS011;1738;49.500;17.736;2023-03-13T02:44:01;6.13;;;4.40;;
3447;SDS011;1738;49.500;17.736;2023-03-13T02:46:27;6.50;;;4.80;;
3447;SDS011;1738;49.500;17.736;2023-03-13T02:48:53;7.37;;;5.30;;
3447;SDS011;1738;49.500;17.736;2023-03-13T02:51:24;7.23;;;5.03;;
3447;SDS011;1738;49.500;17.736;2023-03-13T02:53:48;9.03;;;4.03;;
3447;SDS011;1738;49.500;17.736;2023-03-13T02:56:13;5.50;;;4.63;;
3447;SDS011;1738;49.500;17.736;2023-03-13T02:58:41;8.13;;;4.80;;
3447;SDS011;1738;49.500;17.736;2023-03-13T03:01:05;6.10;;;4.90;;
3447;SDS011;1738;49.500;17.736;2023-03-13T03:03:31;8.23;;;5.97;;
3447;SDS011;1738;49.500;17.736;2023-03-13T03:05:57;13.60;;;4.87;;
3447;SDS011;1738;49.500;17.736;2023-03-13T03:08:23;5.20;;;4.20;;
3447;SDS011;1738;49.500;17.736;2023-03-13T03:10:49;6.00;;;4.57;;
3447;SDS011;1738;49.500;17.736;2023-03-13T03:13:14;8.10;;;4.47;;
3447;SDS011;1738;49.500;17.736;2023-03-13T03:15:40;7.70;;;4.33;;
3447;SDS011;1738;49.500;17.736;2023-03-13T03:18:06;7.72;;;4.68;;
3447;SDS011;1738;49.500;17.736;2023-03-13T03:20:32;8.00;;;4.47;;
3447;SDS011;1738;49.500;17.736;2023-03-13T03:22:58;5.97;;;4.00;;
3447;SDS011;1738;49.500;17.736;2023-03-13T03:25:24;6.27;;;4.63;;
3447;SDS011;1738;49.500;17.736;2023-03-13T03:27:49;5.37;;;3.73;;
3447;SDS011;1738;49.500;17.736;2023-03-13T03:30:15;6.07;;;4.10;;
3447;SDS011;1738;49.500;17.736;2023-03-13T03:32:41;5.67;;;3.83;;
3447;SDS011;1738;49.500;17.736;2023-03-13T03:35:07;7.00;;;4.97;;
3447;SDS011;1738;49.500;17.736;2023-03-13T03:37:33;9.10;;;4.60;;
3447;SDS011;1738;49.500;17.736;2023-03-13T03:39:59;13.47;;;10.53;;
3447;SDS011;1738;49.500;17.736;2023-03-13T03:42:25;9.93;;;8.90;;
3447;SDS011;1738;49.500;17.736;2023-03-13T03:44:51;9.00;;;6.43;;
3447;SDS011;1738;49.500;17.736;2023-03-13T03:47:16;8.10;;;4.90;;
3447;SDS011;1738;49.500;17.736;2023-03-13T03:49:42;8.30;;;4.47;;
3447;SDS011;1738;49.500;17.736;2023-03-13T03:52:08;8.47;;;5.40;;
3447;SDS011;1738;49.500;17.736;2023-03-13T03:54:34;8.50;;;4.90;;
3447;SDS011;1738;49.500;17.736;2023-03-13T03:57:00;9.97;;;5.67;;
3447;SDS011;1738;49.500;17.736;2023-03-13T03:59:26;6.47;;;4.10;;
3447;SDS011;1738;49.500;17.736;2023-03-13T04:01:51;7.67;;;5.23;;
3447;SDS011;1738;49.500;17.736;2023-03-13T04:04:17;7.10;;;4.80;;
3447;SDS011;1738;49.500;17.736;2023-03-13T04:06:43;7.30;;;5.10;;
3447;SDS011;1738;49.500;17.736;2023-03-13T04:09:09;7.00;;;4.17;;
3447;SDS011;1738;49.500;17.736;2023-03-13T04:11:35;7.18;;;4.15;;
3447;SDS011;1738;49.500;17.736;2023-03-13T04:14:01;6.87;;;4.50;;
3447;SDS011;1738;49.500;17.736;2023-03-13T04:16:27;7.73;;;4.20;;
3447;SDS011;1738;49.500;17.736;2023-03-13T04:18:52;9.60;;;5.13;;
3447;SDS011;1738;49.500;17.736;2023-03-13T04:21:18;6.87;;;4.60;;
3447;SDS011;1738;49.500;17.736;2023-03-13T04:23:44;6.40;;;4.40;;
3447;SDS011;1738;49.500;17.736;2023-03-13T04:26:10;6.60;;;4.80;;
3447;SDS011;1738;49.500;17.736;2023-03-13T04:28:36;9.03;;;5.30;;
3447;SDS011;1738;49.500;17.736;2023-03-13T04:31:02;5.57;;;4.03;;
3447;SDS011;1738;49.500;17.736;2023-03-13T04:33:27;9.32;;;4.72;;
3447;SDS011;1738;49.500;17.736;2023-03-13T04:35:53;7.63;;;5.03;;
3447;SDS011;1738;49.500;17.736;2023-03-13T04:38:19;6.90;;;5.20;;
3447;SDS011;1738;49.500;17.736;2023-03-13T04:40:45;7.90;;;5.10;;
3447;SDS011;1738;49.500;17.736;2023-03-13T04:43:11;9.90;;;4.60;;
3447;SDS011;1738;49.500;17.736;2023-03-13T04:45:37;9.00;;;5.40;;
3447;SDS011;1738;49.500;17.736;2023-03-13T04:48:03;7.93;;;5.20;;
3447;SDS011;1738;49.500;17.736;2023-03-13T04:50:28;10.17;;;4.87;;
3447;SDS011;1738;49.500;17.736;2023-03-13T04:52:54;9.00;;;5.40;;
3447;SDS011;1738;49.500;17.736;2023-03-13T04:55:20;8.25;;;5.00;;
3447;SDS011;1738;49.500;17.736;2023-03-13T04:57:46;7.90;;;5.40;;
3447;SDS011;1738;49.500;17.736;2023-03-13T05:00:12;9.50;;;5.40;;
3447;SDS011;1738;49.500;17.736;2023-03-13T05:02:38;10.10;;;4.72;;
3447;SDS011;1738;49.500;17.736;2023-03-13T05:05:04;7.03;;;5.07;;
3447;SDS011;1738;49.500;17.736;2023-03-13T05:07:30;6.70;;;4.87;;
3447;SDS011;1738;49.500;17.736;2023-03-13T05:09:55;7.23;;;4.73;;
3447;SDS011;1738;49.500;17.736;2023-03-13T05:12:21;8.03;;;5.47;;
3447;SDS011;1738;49.500;17.736;2023-03-13T05:14:47;7.63;;;4.73;;
3447;SDS011;1738;49.500;17.736;2023-03-13T05:17:13;7.00;;;4.80;;
3447;SDS011;1738;49.500;17.736;2023-03-13T05:19:39;5.43;;;4.10;;
3447;SDS011;1738;49.500;17.736;2023-03-13T05:22:05;9.10;;;5.40;;
3447;SDS011;1738;49.500;17.736;2023-03-13T05:24:31;6.80;;;5.17;;
3447;SDS011;1738;49.500;17.736;2023-03-13T05:26:56;5.33;;;4.50;;
3447;SDS011;1738;49.500;17.736;2023-03-13T05:29:22;7.67;;;5.53;;
3447;SDS011;1738;49.500;17.736;2023-03-13T05:31:48;8.35;;;5.57;;
3447;SDS011;1738;49.500;17.736;2023-03-13T05:34:14;7.40;;;4.90;;
3447;SDS011;1738;49.500;17.736;2023-03-13T05:36:40;9.00;;;5.30;;
3447;SDS011;1738;49.500;17.736;2023-03-13T05:39:06;9.60;;;4.87;;
3447;SDS011;1738;49.500;17.736;2023-03-13T05:41:32;10.73;;;4.70;;
3447;SDS011;1738;49.500;17.736;2023-03-13T05:43:58;9.90;;;5.25;;
3447;SDS011;1738;49.500;17.736;2023-03-13T05:46:23;6.13;;;5.00;;
3447;SDS011;1738;49.500;17.736;2023-03-13T05:48:49;6.37;;;4.77;;
3447;SDS011;1738;49.500;17.736;2023-03-13T05:51:15;9.52;;;4.80;;
3447;SDS011;1738;49.500;17.736;2023-03-13T05:53:41;10.60;;;6.17;;
3447;SDS011;1738;49.500;17.736;2023-03-13T05:56:07;7.30;;;5.00;;
3447;SDS011;1738;49.500;17.736;2023-03-13T05:58:33;12.10;;;5.00;;
3447;SDS011;1738;49.500;17.736;2023-03-13T06:00:59;6.53;;;4.67;;
3447;SDS011;1738;49.500;17.736;2023-03-13T06:03:24;8.50;;;5.60;;
3447;SDS011;1738;49.500;17.736;2023-03-13T06:05:55;8.43;;;4.60;;
3447;SDS011;1738;49.500;17.736;2023-03-13T06:08:16;9.73;;;6.03;;
3447;SDS011;1738;49.500;17.736;2023-03-13T06:10:42;7.63;;;4.23;;
3447;SDS011;1738;49.500;17.736;2023-03-13T06:13:08;10.70;;;5.50;;
3447;SDS011;1738;49.500;17.736;2023-03-13T06:15:34;10.17;;;4.77;;
3447;SDS011;1738;49.500;17.736;2023-03-13T06:17:59;7.87;;;5.20;;
3447;SDS011;1738;49.500;17.736;2023-03-13T06:20:25;7.90;;;4.83;;
3447;SDS011;1738;49.500;17.736;2023-03-13T06:22:51;9.13;;;5.10;;
3447;SDS011;1738;49.500;17.736;2023-03-13T06:25:17;8.23;;;4.43;;
3447;SDS011;1738;49.500;17.736;2023-03-13T06:27:43;13.32;;;4.90;;
3447;SDS011;1738;49.500;17.736;2023-03-13T06:30:10;8.53;;;5.13;;
3447;SDS011;1738;49.500;17.736;2023-03-13T06:32:36;10.30;;;6.37;;
3447;SDS011;1738;49.500;17.736;2023-03-13T06:35:02;7.93;;;3.73;;
3447;SDS011;1738;49.500;17.736;2023-03-13T06:37:27;9.00;;;4.67;;
3447;SDS011;1738;49.500;17.736;2023-03-13T06:39:53;7.10;;;4.40;;
3447;SDS011;1738;49.500;17.736;2023-03-13T06:42:19;11.67;;;4.50;;
3447;SDS011;1738;49.500;17.736;2023-03-13T06:44:45;7.27;;;4.03;;
3447;SDS011;1738;49.500;17.736;2023-03-13T06:47:11;8.43;;;5.23;;
3447;SDS011;1738;49.500;17.736;2023-03-13T06:49:37;7.13;;;4.93;;
3447;SDS011;1738;49.500;17.736;2023-03-13T06:52:03;7.60;;;4.13;;
3447;SDS011;1738;49.500;17.736;2023-03-13T06:54:29;7.20;;;4.50;;
3447;SDS011;1738;49.500;17.736;2023-03-13T06:56:55;5.73;;;4.43;;
3447;SDS011;1738;49.500;17.736;2023-03-13T06:59:21;6.40;;;4.20;;
3447;SDS011;1738;49.500;17.736;2023-03-13T07:01:47;7.50;;;4.50;;
3447;SDS011;1738;49.500;17.736;2023-03-13T07:04:13;8.63;;;6.13;;
3447;SDS011;1738;49.500;17.736;2023-03-13T07:06:39;8.80;;;3.83;;
3447;SDS011;1738;49.500;17.736;2023-03-13T07:09:05;6.50;;;4.30;;
3447;SDS011;1738;49.500;17.736;2023-03-13T07:11:30;6.13;;;3.73;;
3447;SDS011;1738;49.500;17.736;2023-03-13T07:13:56;5.03;;;3.70;;
3447;SDS011;1738;49.500;17.736;2023-03-13T07:16:23;7.80;;;4.03;;
3447;SDS011;1738;49.500;17.736;2023-03-13T07:18:49;6.90;;;4.20;;
3447;SDS011;1738;49.500;17.736;2023-03-13T07:21:15;7.97;;;4.53;;
3447;SDS011;1738;49.500;17.736;2023-03-13T07:23:40;7.07;;;4.05;;
3447;SDS011;1738;49.500;17.736;2023-03-13T07:26:08;11.30;;;4.77;;
3447;SDS011;1738;49.500;17.736;2023-03-13T07:28:32;6.10;;;3.10;;
3447;SDS011;1738;49.500;17.736;2023-03-13T07:31:04;7.90;;;4.00;;
3447;SDS011;1738;49.500;17.736;2023-03-13T07:33:29;8.93;;;3.60;;
3447;SDS011;1738;49.500;17.736;2023-03-13T07:35:55;6.62;;;3.72;;
3447;SDS011;1738;49.500;17.736;2023-03-13T07:38:20;6.53;;;3.67;;
3447;SDS011;1738;49.500;17.736;2023-03-13T07:40:48;6.80;;;3.70;;
3447;SDS011;1738;49.500;17.736;2023-03-13T07:43:13;3.30;;;2.27;;
3447;SDS011;1738;49.500;17.736;2023-03-13T07:45:39;5.00;;;3.40;;
3447;SDS011;1738;49.500;17.736;2023-03-13T07:48:05;8.13;;;3.67;;
3447;SDS011;1738;49.500;17.736;2023-03-13T07:50:31;8.33;;;3.40;;
3447;SDS011;1738;49.500;17.736;2023-03-13T07:52:56;7.77;;;3.30;;
3447;SDS011;1738;49.500;17.736;2023-03-13T07:55:22;6.20;;;3.67;;
3447;SDS011;1738;49.500;17.736;2023-03-13T07:57:48;7.80;;;3.83;;
3447;SDS011;1738;49.500;17.736;2023-03-13T08:00:14;5.63;;;3.53;;
3447;SDS011;1738;49.500;17.736;2023-03-13T08:02:40;6.30;;;4.00;;
3447;SDS011;1738;49.500;17.736;2023-03-13T08:05:06;7.50;;;3.63;;
3447;SDS011;1738;49.500;17.736;2023-03-13T08:07:32;7.90;;;3.93;;
3447;SDS011;1738;49.500;17.736;2023-03-13T08:09:58;4.80;;;3.50;;
3447;SDS011;1738;49.500;17.736;2023-03-13T08:12:24;5.37;;;3.67;;
3447;SDS011;1738;49.500;17.736;2023-03-13T08:14:49;6.63;;;3.83;;
3447;SDS011;1738;49.500;17.736;2023-03-13T08:17:15;6.00;;;3.43;;
3447;SDS011;1738;49.500;17.736;2023-03-13T08:19:41;9.10;;;3.70;;
3447;SDS011;1738;49.500;17.736;2023-03-13T08:22:07;7.40;;;3.70;;
3447;SDS011;1738;49.500;17.736;2023-03-13T08:24:33;13.00;;;4.37;;
3447;SDS011;1738;49.500;17.736;2023-03-13T08:26:59;6.83;;;4.10;;
3447;SDS011;1738;49.500;17.736;2023-03-13T08:29:24;9.10;;;4.07;;
3447;SDS011;1738;49.500;17.736;2023-03-13T08:31:50;8.20;;;4.00;;
3447;SDS011;1738;49.500;17.736;2023-03-13T08:34:16;4.40;;;2.70;;
3447;SDS011;1738;49.500;17.736;2023-03-13T08:36:42;7.80;;;4.23;;
3447;SDS011;1738;49.500;17.736;2023-03-13T08:39:10;6.40;;;3.70;;
3447;SDS011;1738;49.500;17.736;2023-03-13T08:41:35;7.60;;;4.60;;
3447;SDS011;1738;49.500;17.736;2023-03-13T08:44:02;5.00;;;3.43;;
3447;SDS011;1738;49.500;17.736;2023-03-13T08:46:28;9.17;;;3.07;;
3447;SDS011;1738;49.500;17.736;2023-03-13T08:48:54;6.68;;;4.30;;
3447;SDS011;1738;49.500;17.736;2023-03-13T08:51:20;12.23;;;4.63;;
3447;SDS011;1738;49.500;17.736;2023-03-13T08:53:45;7.83;;;3.17;;
3447;SDS011;1738;49.500;17.736;2023-03-13T08:56:12;6.47;;;3.77;;
3447;SDS011;1738;49.500;17.736;2023-03-13T08:58:37;6.00;;;3.90;;
3447;SDS011;1738;49.500;17.736;2023-03-13T09:01:04;6.03;;;3.03;;
3447;SDS011;1738;49.500;17.736;2023-03-13T09:03:29;7.87;;;3.60;;
3447;SDS011;1738;49.500;17.736;2023-03-13T09:05:55;5.32;;;2.87;;
3447;SDS011;1738;49.500;17.736;2023-03-13T09:08:21;5.97;;;3.10;;
3447;SDS011;1738;49.500;17.736;2023-03-13T09:10:46;7.53;;;3.30;;
3447;SDS011;1738;49.500;17.736;2023-03-13T09:13:12;4.37;;;3.30;;
3447;SDS011;1738;49.500;17.736;2023-03-13T09:15:38;5.37;;;3.30;;
3447;SDS011;1738;49.500;17.736;2023-03-13T09:18:04;5.93;;;3.45;;
3447;SDS011;1738;49.500;17.736;2023-03-13T09:20:30;9.87;;;3.33;;
3447;SDS011;1738;49.500;17.736;2023-03-13T09:22:56;7.50;;;3.23;;
3447;SDS011;1738;49.500;17.736;2023-03-13T09:25:22;5.87;;;3.43;;
3447;SDS011;1738;49.500;17.736;2023-03-13T09:27:47;6.40;;;3.00;;
3447;SDS011;1738;49.500;17.736;2023-03-13T09:30:13;6.50;;;3.83;;
3447;SDS011;1738;49.500;17.736;2023-03-13T09:32:39;7.67;;;4.80;;
3447;SDS011;1738;49.500;17.736;2023-03-13T09:35:05;8.20;;;3.77;;
3447;SDS011;1738;49.500;17.736;2023-03-13T09:37:31;7.83;;;3.77;;
3447;SDS011;1738;49.500;17.736;2023-03-13T09:39:57;7.30;;;4.00;;
3447;SDS011;1738;49.500;17.736;2023-03-13T09:42:28;9.00;;;4.30;;
3447;SDS011;1738;49.500;17.736;2023-03-13T09:44:55;7.67;;;3.40;;
3447;SDS011;1738;49.500;17.736;2023-03-13T09:47:23;7.03;;;3.50;;
3447;SDS011;1738;49.500;17.736;2023-03-13T09:49:51;6.77;;;3.10;;
3447;SDS011;1738;49.500;17.736;2023-03-13T09:52:17;5.83;;;4.00;;
3447;SDS011;1738;49.500;17.736;2023-03-13T09:54:45;6.77;;;4.17;;
3447;SDS011;1738;49.500;17.736;2023-03-13T09:57:14;9.57;;;3.97;;
3447;SDS011;1738;49.500;17.736;2023-03-13T09:59:48;7.57;;;3.00;;
3447;SDS011;1738;49.500;17.736;2023-03-13T10:02:32;8.80;;;3.73;;
3447;SDS011;1738;49.500;17.736;2023-03-13T10:07:40;9.23;;;3.03;;
3447;SDS011;1738;49.500;17.736;2023-03-13T10:10:10;6.80;;;3.70;;
3447;SDS011;1738;49.500;17.736;2023-03-13T10:12:35;5.53;;;2.63;;
3447;SDS011;1738;49.500;17.736;2023-03-13T10:15:06;9.25;;;3.58;;
3447;SDS011;1738;49.500;17.736;2023-03-13T10:17:30;9.63;;;3.10;;
3447;SDS011;1738;49.500;17.736;2023-03-13T10:19:55;5.60;;;3.50;;
3447;SDS011;1738;49.500;17.736;2023-03-13T10:22:21;5.90;;;3.27;;
3447;SDS011;1738;49.500;17.736;2023-03-13T10:24:49;7.73;;;3.00;;
3447;SDS011;1738;49.500;17.736;2023-03-13T10:27:14;7.50;;;3.33;;
3447;SDS011;1738;49.500;17.736;2023-03-13T10:29:39;6.43;;;3.57;;
3447;SDS011;1738;49.500;17.736;2023-03-13T10:32:06;6.63;;;2.77;;
3447;SDS011;1738;49.500;17.736;2023-03-13T10:37:03;7.10;;;3.50;;
3447;SDS011;1738;49.500;17.736;2023-03-13T10:39:29;6.90;;;3.77;;
3447;SDS011;1738;49.500;17.736;2023-03-13T10:41:57;5.55;;;2.70;;
3447;SDS011;1738;49.500;17.736;2023-03-13T10:44:23;5.53;;;3.67;;
3447;SDS011;1738;49.500;17.736;2023-03-13T10:46:49;15.87;;;4.77;;
3447;SDS011;1738;49.500;17.736;2023-03-13T10:49:15;6.47;;;2.90;;
3447;SDS011;1738;49.500;17.736;2023-03-13T10:51:43;5.07;;;2.43;;
3447;SDS011;1738;49.500;17.736;2023-03-13T10:54:18;5.87;;;3.00;;
3447;SDS011;1738;49.500;17.736;2023-03-13T10:56:43;5.40;;;3.00;;
3447;SDS011;1738;49.500;17.736;2023-03-13T11:01:41;4.60;;;2.87;;
3447;SDS011;1738;49.500;17.736;2023-03-13T11:04:41;4.80;;;2.80;;
3447;SDS011;1738;49.500;17.736;2023-03-13T11:06:50;8.20;;;3.80;;
3447;SDS011;1738;49.500;17.736;2023-03-13T11:09:17;8.77;;;4.00;;
3447;SDS011;1738;49.500;17.736;2023-03-13T11:11:45;10.77;;;3.10;;
3447;SDS011;1738;49.500;17.736;2023-03-13T11:14:13;5.00;;;3.63;;
3447;SDS011;1738;49.500;17.736;2023-03-13T11:16:40;6.10;;;3.60;;
3447;SDS011;1738;49.500;17.736;2023-03-13T11:19:07;4.90;;;2.90;;
3447;SDS011;1738;49.500;17.736;2023-03-13T11:21:34;5.20;;;3.53;;
3447;SDS011;1738;49.500;17.736;2023-03-13T11:23:57;5.17;;;3.10;;
3447;SDS011;1738;49.500;17.736;2023-03-13T11:26:26;5.70;;;3.20;;
3447;SDS011;1738;49.500;17.736;2023-03-13T11:28:57;6.17;;;3.60;;
3447;SDS011;1738;49.500;17.736;2023-03-13T11:31:27;7.07;;;4.10;;
3447;SDS011;1738;49.500;17.736;2023-03-13T11:34:05;5.13;;;3.10;;
3447;SDS011;1738;49.500;17.736;2023-03-13T11:36:34;5.57;;;3.43;;
3447;SDS011;1738;49.500;17.736;2023-03-13T11:44:20;6.25;;;4.32;;
3447;SDS011;1738;49.500;17.736;2023-03-13T11:46:56;4.87;;;3.63;;
3447;SDS011;1738;49.500;17.736;2023-03-13T11:49:35;6.00;;;3.57;;
3447;SDS011;1738;49.500;17.736;2023-03-13T11:52:04;7.50;;;3.93;;
3447;SDS011;1738;49.500;17.736;2023-03-13T11:54:37;5.70;;;4.17;;
3447;SDS011;1738;49.500;17.736;2023-03-13T11:57:04;7.47;;;4.25;;
3447;SDS011;1738;49.500;17.736;2023-03-13T11:59:31;5.67;;;4.13;;
3447;SDS011;1738;49.500;17.736;2023-03-13T12:01:59;5.90;;;4.47;;
3447;SDS011;1738;49.500;17.736;2023-03-13T12:04:25;6.50;;;4.47;;
3447;SDS011;1738;49.500;17.736;2023-03-13T12:06:52;9.40;;;4.70;;
3447;SDS011;1738;49.500;17.736;2023-03-13T12:09:22;5.93;;;3.83;;
3447;SDS011;1738;49.500;17.736;2023-03-13T12:11:51;6.67;;;4.20;;
3447;SDS011;1738;49.500;17.736;2023-03-13T12:14:15;11.00;;;3.27;;
3447;SDS011;1738;49.500;17.736;2023-03-13T12:19:13;7.33;;;4.47;;
3447;SDS011;1738;49.500;17.736;2023-03-13T12:21:39;4.70;;;3.10;;
3447;SDS011;1738;49.500;17.736;2023-03-13T12:24:12;7.27;;;4.10;;
3447;SDS011;1738;49.500;17.736;2023-03-13T12:26:42;8.80;;;4.80;;
3447;SDS011;1738;49.500;17.736;2023-03-13T12:29:11;7.90;;;4.27;;
3447;SDS011;1738;49.500;17.736;2023-03-13T12:31:35;7.77;;;4.37;;
3447;SDS011;1738;49.500;17.736;2023-03-13T12:34:10;9.97;;;4.37;;
3447;SDS011;1738;49.500;17.736;2023-03-13T12:36:34;9.07;;;5.05;;
3447;SDS011;1738;49.500;17.736;2023-03-13T12:41:35;8.73;;;5.22;;
3447;SDS011;1738;49.500;17.736;2023-03-13T12:43:59;8.40;;;3.83;;
3447;SDS011;1738;49.500;17.736;2023-03-13T12:46:32;7.20;;;3.67;;
3447;SDS011;1738;49.500;17.736;2023-03-13T12:51:33;8.47;;;3.90;;
3447;SDS011;1738;49.500;17.736;2023-03-13T12:56:53;6.50;;;4.30;;
3447;SDS011;1738;49.500;17.736;2023-03-13T12:59:21;7.80;;;3.83;;
3447;SDS011;1738;49.500;17.736;2023-03-13T13:01:47;5.40;;;3.27;;
3447;SDS011;1738;49.500;17.736;2023-03-13T13:04:14;8.37;;;3.70;;
3447;SDS011;1738;49.500;17.736;2023-03-13T13:09:16;7.70;;;4.27;;
3447;SDS011;1738;49.500;17.736;2023-03-13T13:11:42;7.47;;;3.40;;
3447;SDS011;1738;49.500;17.736;2023-03-13T13:14:35;7.00;;;3.97;;
3447;SDS011;1738;49.500;17.736;2023-03-13T13:16:40;6.60;;;3.30;;
3447;SDS011;1738;49.500;17.736;2023-03-13T13:21:34;7.17;;;3.67;;
3447;SDS011;1738;49.500;17.736;2023-03-13T13:26:36;5.93;;;3.60;;
3447;SDS011;1738;49.500;17.736;2023-03-13T13:39:51;4.27;;;2.30;;
3447;SDS011;1738;49.500;17.736;2023-03-13T13:42:45;4.07;;;2.43;;
3447;SDS011;1738;49.500;17.736;2023-03-13T13:45:37;4.37;;;2.33;;
3447;SDS011;1738;49.500;17.736;2023-03-13T13:47:46;8.60;;;2.80;;
3447;SDS011;1738;49.500;17.736;2023-03-13T13:50:28;3.70;;;2.33;;
3447;SDS011;1738;49.500;17.736;2023-03-13T13:53:22;4.23;;;2.40;;
3447;SDS011;1738;49.500;17.736;2023-03-13T13:58:04;5.07;;;2.60;;
3447;SDS011;1738;49.500;17.736;2023-03-13T14:00:37;3.80;;;2.53;;
3447;SDS011;1738;49.500;17.736;2023-03-13T14:03:01;4.10;;;2.77;;
3447;SDS011;1738;49.500;17.736;2023-03-13T14:05:27;5.83;;;3.13;;
3447;SDS011;1738;49.500;17.736;2023-03-13T14:07:54;5.63;;;3.10;;
3447;SDS011;1738;49.500;17.736;2023-03-13T14:10:27;4.10;;;2.50;;
3447;SDS011;1738;49.500;17.736;2023-03-13T14:12:52;4.60;;;3.07;;
3447;SDS011;1738;49.500;17.736;2023-03-13T14:15:18;5.40;;;3.47;;
3447;SDS011;1738;49.500;17.736;2023-03-13T14:17:46;5.37;;;2.92;;
3447;SDS011;1738;49.500;17.736;2023-03-13T14:20:17;4.80;;;2.87;;
3447;SDS011;1738;49.500;17.736;2023-03-13T14:22:43;6.10;;;3.40;;
3447;SDS011;1738;49.500;17.736;2023-03-13T14:25:08;5.97;;;2.80;;
3447;SDS011;1738;49.500;17.736;2023-03-13T14:27:34;5.10;;;3.57;;
3447;SDS011;1738;49.500;17.736;2023-03-13T14:30:03;4.90;;;3.30;;
3447;SDS011;1738;49.500;17.736;2023-03-13T14:32:28;5.50;;;3.17;;
3447;SDS011;1738;49.500;17.736;2023-03-13T14:34:54;6.07;;;3.60;;
3447;SDS011;1738;49.500;17.736;2023-03-13T14:39:51;5.30;;;3.50;;
3447;SDS011;1738;49.500;17.736;2023-03-13T14:42:17;7.90;;;2.90;;
3447;SDS011;1738;49.500;17.736;2023-03-13T14:44:43;5.13;;;2.87;;
3447;SDS011;1738;49.500;17.736;2023-03-13T14:47:22;6.40;;;3.70;;
3447;SDS011;1738;49.500;17.736;2023-03-13T14:49:53;4.67;;;2.87;;
3447;SDS011;1738;49.500;17.736;2023-03-13T14:52:19;5.03;;;3.33;;
3447;SDS011;1738;49.500;17.736;2023-03-13T14:57:14;7.75;;;3.05;;
3447;SDS011;1738;49.500;17.736;2023-03-13T14:59:39;5.60;;;2.50;;
3447;SDS011;1738;49.500;17.736;2023-03-13T15:02:15;8.77;;;2.73;;
3447;SDS011;1738;49.500;17.736;2023-03-13T15:07:11;4.60;;;3.17;;
3447;SDS011;1738;49.500;17.736;2023-03-13T15:09:40;5.33;;;3.00;;
3447;SDS011;1738;49.500;17.736;2023-03-13T15:12:03;3.80;;;2.50;;
3447;SDS011;1738;49.500;17.736;2023-03-13T15:14:31;5.47;;;2.90;;
3447;SDS011;1738;49.500;17.736;2023-03-13T15:16:56;5.10;;;3.50;;
3447;SDS011;1738;49.500;17.736;2023-03-13T15:19:22;4.40;;;2.97;;
3447;SDS011;1738;49.500;17.736;2023-03-13T15:21:50;5.37;;;2.70;;
3447;SDS011;1738;49.500;17.736;2023-03-13T15:24:13;5.43;;;3.40;;
3447;SDS011;1738;49.500;17.736;2023-03-13T15:26:39;4.80;;;2.93;;
3447;SDS011;1738;49.500;17.736;2023-03-13T15:29:05;5.73;;;3.40;;
3447;SDS011;1738;49.500;17.736;2023-03-13T15:31:31;4.93;;;2.80;;
3447;SDS011;1738;49.500;17.736;2023-03-13T15:33:58;5.70;;;3.20;;
3447;SDS011;1738;49.500;17.736;2023-03-13T15:36:23;3.50;;;2.27;;
3447;SDS011;1738;49.500;17.736;2023-03-13T15:38:48;6.03;;;2.53;;
3447;SDS011;1738;49.500;17.736;2023-03-13T15:41:14;6.80;;;3.20;;
3447;SDS011;1738;49.500;17.736;2023-03-13T15:43:40;4.80;;;3.07;;
3447;SDS011;1738;49.500;17.736;2023-03-13T15:46:09;6.03;;;3.20;;
3447;SDS011;1738;49.500;17.736;2023-03-13T15:48:32;6.67;;;4.00;;
3447;SDS011;1738;49.500;17.736;2023-03-13T15:50:59;9.50;;;3.70;;
3447;SDS011;1738;49.500;17.736;2023-03-13T15:53:25;5.50;;;3.57;;